Time;durP1;ratioP1;P1;durP2;ratioP2;P2;SDS_P1;SDS_P2;PMS_P1;PMS_P2;Temp;Humidity;BMP_temperature;BMP_pressure;BME280_temperature;BME280_humidity;BME280_pressure;Samples;Min_cycle;Max_cycle;Signal;HPM_P1;HPM_P2
2022/01/17 00:03:51;;;;;;;181.03;83.43;;;;;;;2.85;95.12;102941.47;10499144;28;20128;-80
2022/01/17 00:08:51;;;;;;;172.52;78.55;;;;;;;2.90;94.79;102938.63;10499372;28;20111;-80
2022/01/17 00:13:52;;;;;;;187.80;79.57;;;;;;;2.93;94.59;102940.66;10499291;28;20498;-80
2022/01/17 00:19:28;;;;;;;178.77;80.75;;;;;;;2.92;94.49;102955.25;10498668;28;20453;-80
2022/01/17 00:24:13;;;;;;;176.25;76.22;;;;;;;2.97;94.74;102963.53;10469319;28;20040;-80
2022/01/17 00:29:14;;;;;;;213.13;93.73;;;;;;;2.96;95.19;102966.88;10497159;28;20036;-81
2022/01/17 00:34:14;;;;;;;180.45;80.38;;;;;;;2.97;94.74;102972.94;10498142;28;20052;-80
2022/01/17 00:39:15;;;;;;;204.52;91.18;;;;;;;3.02;94.69;102962.38;10497498;28;20561;-80
2022/01/17 00:44:21;;;;;;;194.80;83.15;;;;;;;3.03;94.81;102977.16;10481068;28;20036;-81
2022/01/17 00:49:21;;;;;;;188.77;83.55;;;;;;;3.08;95.08;102970.84;10460166;28;20066;-80
2022/01/17 00:54:21;;;;;;;182.65;87.47;;;;;;;3.09;94.97;102974.31;10479221;28;20060;-80
2022/01/17 00:59:22;;;;;;;191.20;81.50;;;;;;;3.09;94.97;102974.31;10497042;28;20505;-80
2022/01/17 01:04:23;;;;;;;180.93;89.07;;;;;;;3.07;95.38;102976.75;10498579;28;20029;-80
2022/01/17 01:09:25;;;;;;;195.23;87.57;;;;;;;3.12;95.15;102969.50;10495844;28;20031;-80
2022/01/17 01:14:26;;;;;;;192.52;86.15;;;;;;;3.13;94.62;102979.09;10495808;28;20086;-80
2022/01/17 01:19:28;;;;;;;205.32;89.63;;;;;;;3.11;94.66;102996.13;10496005;28;20069;-80
2022/01/17 01:29:55;;;;;;;182.90;79.82;;;;;;;3.14;95.01;102982.63;10489163;28;19917;-80
2022/01/17 01:34:58;;;;;;;163.45;75.60;;;;;;;3.12;94.86;102977.25;10454309;28;20041;-80
2022/01/17 01:39:59;;;;;;;173.95;83.75;;;;;;;3.12;95.01;102974.66;10464442;28;20055;-80
2022/01/17 01:45:01;;;;;;;174.68;82.30;;;;;;;3.13;94.87;102965.25;10479787;28;20083;-80
2022/01/17 01:50:01;;;;;;;186.32;84.95;;;;;;;3.13;95.11;102967.84;10495453;28;20028;-80
2022/01/17 01:55:03;;;;;;;191.85;88.72;;;;;;;3.11;95.19;102975.41;10494523;28;20029;-80
2022/01/17 02:00:05;;;;;;;205.00;86.50;;;;;;;3.12;95.30;102987.59;10493881;28;20082;-79
2022/01/17 02:05:06;;;;;;;186.07;90.85;;;;;;;3.12;95.03;103005.72;10496155;28;20434;-79
2022/01/17 02:10:07;;;;;;;189.02;90.32;;;;;;;3.15;94.74;103011.25;10459880;28;20075;-79
2022/01/17 02:15:11;;;;;;;198.18;92.40;;;;;;;3.18;95.07;102983.13;10493575;28;20103;-80
2022/01/17 02:20:17;;;;;;;169.00;83.72;;;;;;;3.22;94.86;102987.88;10498426;28;20040;-79
2022/01/17 02:25:18;;;;;;;166.95;85.95;;;;;;;3.24;94.72;102985.50;10460402;28;20118;-79
2022/01/17 02:30:23;;;;;;;185.05;84.72;;;;;;;3.27;94.58;102998.78;10456626;28;20052;-80
2022/01/17 02:35:24;;;;;;;177.20;86.80;;;;;;;3.23;94.68;102997.50;10502631;28;20036;-80
2022/01/17 02:40:27;;;;;;;180.00;85.10;;;;;;;3.28;94.59;102999.66;10502692;28;20041;-80
2022/01/17 02:45:34;;;;;;;161.93;77.65;;;;;;;3.24;95.08;102993.25;10504102;28;20064;-80
2022/01/17 02:50:35;;;;;;;179.95;81.80;;;;;;;3.11;94.11;102998.72;10500918;28;20081;-80
2022/01/17 02:55:37;;;;;;;154.25;82.93;;;;;;;2.97;94.71;102997.16;10503174;28;20372;-79
2022/01/17 03:00:37;;;;;;;161.63;79.45;;;;;;;2.82;94.70;102990.28;10467482;28;20040;-79
2022/01/17 03:05:38;;;;;;;147.02;75.72;;;;;;;2.60;94.61;102969.72;10503030;28;20047;-80
2022/01/17 03:15:39;;;;;;;164.95;77.35;;;;;;;2.28;94.78;102959.22;10500798;28;20036;-80
2022/01/17 03:20:47;;;;;;;145.82;81.25;;;;;;;2.14;94.57;102953.38;10482786;28;20411;-79
2022/01/17 03:25:48;;;;;;;174.68;82.13;;;;;;;2.17;95.02;102947.63;10501289;28;20169;-79
2022/01/17 03:30:48;;;;;;;168.07;85.18;;;;;;;2.10;95.12;102963.16;10499857;28;20028;-79
2022/01/17 03:35:49;;;;;;;179.32;85.70;;;;;;;2.03;95.17;102979.63;10499237;28;20060;-80
2022/01/17 03:40:51;;;;;;;175.40;81.97;;;;;;;1.93;95.08;102985.38;10500170;28;20071;-79
2022/01/17 03:45:52;;;;;;;181.80;86.90;;;;;;;2.01;95.40;102981.13;10484031;28;20036;-79
2022/01/17 03:50:52;;;;;;;188.68;91.22;;;;;;;1.88;95.44;102977.13;10500293;28;20452;-79
2022/01/17 03:55:53;;;;;;;172.77;88.60;;;;;;;1.82;95.38;102985.78;10499964;28;20020;-79
2022/01/17 04:00:55;;;;;;;240.40;97.90;;;;;;;1.81;95.21;102994.28;10499205;28;20494;-79
2022/01/17 04:05:55;;;;;;;185.50;89.45;;;;;;;1.79;95.22;102998.34;10500095;28;20037;-79
2022/01/17 04:10:56;;;;;;;188.98;87.25;;;;;;;1.80;95.44;102992.44;10499162;28;20055;-79
2022/01/17 04:15:56;;;;;;;185.25;85.18;;;;;;;1.68;95.50;102982.50;10481311;28;20028;-79
2022/01/17 04:21:00;;;;;;;196.27;90.72;;;;;;;1.71;95.65;102989.72;10497212;28;20100;-80
2022/01/17 04:26:01;;;;;;;177.95;84.68;;;;;;;1.80;95.63;102995.03;10498409;28;20373;-79
2022/01/17 04:31:02;;;;;;;171.82;82.53;;;;;;;1.74;95.67;103005.56;10497869;28;20025;-79
2022/01/17 04:36:06;;;;;;;182.25;81.45;;;;;;;1.85;95.71;103023.25;10499836;28;20074;-79
2022/01/17 04:41:16;;;;;;;156.25;77.07;;;;;;;1.71;95.40;103031.94;10496734;28;20052;-79
2022/01/17 04:46:16;;;;;;;169.35;81.03;;;;;;;1.86;95.89;103025.09;10497716;28;20116;-79
2022/01/17 04:51:17;;;;;;;162.45;73.63;;;;;;;2.10;95.51;103014.84;10497083;28;20132;-79
2022/01/17 04:56:17;;;;;;;150.68;81.82;;;;;;;2.24;96.18;103000.97;10495935;28;20024;-79
2022/01/17 05:01:18;;;;;;;165.27;75.95;;;;;;;2.32;96.09;103005.34;10479853;28;20135;-79
2022/01/17 05:06:18;;;;;;;156.32;74.70;;;;;;;2.39;96.11;103006.97;10497165;28;20035;-79
2022/01/17 05:11:24;;;;;;;139.95;71.57;;;;;;;2.46;96.03;103010.44;10496161;28;20467;-79
2022/01/17 05:16:32;;;;;;;135.32;69.28;;;;;;;2.48;95.94;103018.34;10497717;28;20024;-79
2022/01/17 05:21:33;;;;;;;133.50;70.53;;;;;;;2.51;95.79;103036.81;10494252;28;20052;-79
2022/01/17 05:26:33;;;;;;;146.88;69.25;;;;;;;2.53;96.29;103055.09;10493264;28;20476;-79
2022/01/17 05:31:34;;;;;;;148.63;66.80;;;;;;;2.52;95.70;103050.66;10479038;28;20030;-78
2022/01/17 05:36:34;;;;;;;155.88;71.82;;;;;;;2.54;95.92;103051.75;10486378;28;20028;-79
2022/01/17 05:41:35;;;;;;;146.30;67.55;;;;;;;2.52;96.06;103061.00;10492946;28;20488;-79
2022/01/17 05:46:35;;;;;;;143.23;67.40;;;;;;;2.53;95.52;103053.41;10464050;28;20062;-79
2022/01/17 05:51:36;;;;;;;150.02;69.68;;;;;;;2.55;96.20;103054.50;10484107;28;20488;-78
2022/01/17 05:56:36;;;;;;;143.88;67.05;;;;;;;2.59;96.01;103041.19;10493040;28;20107;-78
2022/01/17 06:01:40;;;;;;;146.18;69.40;;;;;;;2.55;95.36;103043.25;10491810;28;20131;-78
2022/01/17 06:06:41;;;;;;;120.25;62.53;;;;;;;2.64;95.57;103054.66;10474294;28;20037;-78
2022/01/17 06:11:42;;;;;;;150.52;70.85;;;;;;;2.66;95.29;103055.75;10476776;28;20032;-79
2022/01/17 06:16:44;;;;;;;144.10;72.35;;;;;;;2.67;95.42;103065.34;10494420;28;20100;-81
2022/01/17 06:21:44;;;;;;;134.43;66.60;;;;;;;2.66;95.54;103062.56;10495321;28;20041;-80
2022/01/17 06:26:45;;;;;;;144.50;64.85;;;;;;;2.62;95.29;103066.50;10488354;28;20029;-80
2022/01/17 06:31:45;;;;;;;144.80;70.72;;;;;;;2.46;95.13;103062.13;10493063;28;20083;-80
2022/01/17 06:36:46;;;;;;;141.50;69.72;;;;;;;2.16;95.06;103072.41;10435120;28;20043;-80
2022/01/17 06:41:46;;;;;;;152.07;69.85;;;;;;;2.11;95.00;103064.13;10489207;28;20080;-80
2022/01/17 06:46:47;;;;;;;152.02;76.43;;;;;;;2.20;94.80;103072.94;10492505;28;20043;-80
2022/01/17 06:51:47;;;;;;;147.60;71.20;;;;;;;2.23;95.13;103069.78;10493551;28;20053;-79
2022/01/17 06:56:48;;;;;;;147.43;74.47;;;;;;;2.32;95.63;103072.53;10493076;28;20055;-80
2022/01/17 07:01:48;;;;;;;132.82;71.10;;;;;;;2.19;95.36;103086.63;10488622;28;20498;-78
2022/01/17 07:06:49;;;;;;;146.70;70.95;;;;;;;2.13;95.24;103114.31;10454365;28;20032;-78
2022/01/17 07:11:50;;;;;;;138.93;70.03;;;;;;;1.99;95.25;103143.66;10473108;28;20025;-79
2022/01/17 07:16:50;;;;;;;147.63;74.38;;;;;;;2.06;95.35;103127.25;10484299;28;20072;-79
2022/01/17 07:21:51;;;;;;;157.98;76.32;;;;;;;2.14;95.26;103121.31;10461888;28;20059;-79
2022/01/17 07:26:51;;;;;;;160.13;74.30;;;;;;;2.05;95.43;103100.47;10470496;28;20502;-79
2022/01/17 07:31:53;;;;;;;155.70;78.22;;;;;;;2.10;95.84;103105.25;10490728;28;20064;-79
2022/01/17 07:36:54;;;;;;;157.23;74.70;;;;;;;2.37;95.88;103109.25;10466415;28;20074;-79
2022/01/17 07:41:55;;;;;;;157.73;78.88;;;;;;;2.56;95.25;103108.06;10499692;28;20050;-79
2022/01/17 07:46:58;;;;;;;162.27;76.97;;;;;;;2.68;95.22;103113.75;10500598;28;20472;-79
2022/01/17 07:52:03;;;;;;;162.50;76.20;;;;;;;2.75;95.70;103115.34;10499652;28;20078;-79
2022/01/17 07:57:04;;;;;;;161.38;76.22;;;;;;;2.87;95.71;103108.09;10499610;28;20479;-79
2022/01/17 08:02:05;;;;;;;165.35;78.60;;;;;;;2.97;95.42;103108.41;10503458;28;20077;-79
2022/01/17 08:07:07;;;;;;;168.73;77.93;;;;;;;2.97;95.53;103123.94;10523356;28;20020;-80
2022/01/17 08:12:08;;;;;;;155.05;84.50;;;;;;;3.08;94.99;103130.31;10500139;28;20384;-79
2022/01/17 08:17:09;;;;;;;148.93;73.53;;;;;;;3.16;95.46;103133.81;10458424;28;20032;-79
2022/01/17 08:22:09;;;;;;;166.88;79.15;;;;;;;3.32;95.02;103146.81;10505891;28;20086;-79
2022/01/17 08:27:10;;;;;;;144.60;71.40;;;;;;;3.32;95.17;103145.16;10535188;28;20076;-81
2022/01/17 08:32:10;;;;;;;150.52;77.32;;;;;;;3.38;95.31;103147.50;10493371;28;20043;-80
2022/01/17 08:37:11;;;;;;;140.90;68.85;;;;;;;3.56;95.22;103155.50;10528124;28;20403;-81
2022/01/17 08:42:12;;;;;;;128.90;64.72;;;;;;;3.76;94.52;103145.72;10490991;28;20105;-80
2022/01/17 08:47:12;;;;;;;132.70;67.68;;;;;;;3.90;94.67;103142.09;10499614;28;20047;-79
2022/01/17 08:52:15;;;;;;;110.40;58.08;;;;;;;3.90;93.76;103128.19;10492827;28;20029;-81
2022/01/17 08:57:17;;;;;;;106.80;54.28;;;;;;;3.99;93.00;103117.94;10493790;28;20054;-79
2022/01/17 09:02:17;;;;;;;;;;;;;;;4.47;93.63;103130.94;10514357;28;20032;-78
2022/01/17 09:07:18;;;;;;;89.68;50.03;;;;;;;4.60;91.61;103133.19;10508797;28;19916;-79
2022/01/17 09:12:18;;;;;;;95.50;46.63;;;;;;;4.53;91.02;103136.78;10504864;28;20120;-81
2022/01/17 09:17:19;;;;;;;81.18;44.33;;;;;;;4.47;90.45;103149.06;10500503;28;20115;-81
2022/01/17 09:22:19;;;;;;;102.28;47.40;;;;;;;4.41;90.63;103173.59;10501129;28;20483;-81
2022/01/17 09:27:20;;;;;;;67.38;42.47;;;;;;;4.46;90.48;103181.88;10480714;28;20055;-80
2022/01/17 09:32:20;;;;;;;72.95;40.67;;;;;;;4.42;90.28;103164.16;10458004;28;20025;-79
2022/01/17 09:37:21;;;;;;;71.75;41.67;;;;;;;4.42;90.38;103184.91;10505117;28;20119;-79
2022/01/17 09:42:21;;;;;;;77.25;40.38;;;;;;;4.44;90.15;103177.25;10488521;28;20045;-80
2022/01/17 09:47:22;;;;;;;76.25;40.88;;;;;;;4.41;90.24;103193.44;10456133;28;20544;-80
2022/01/17 09:57:27;;;;;;;53.50;31.48;;;;;;;4.70;89.64;103194.00;10506691;28;20032;-77
2022/01/17 10:02:27;;;;;;;46.17;28.73;;;;;;;4.94;88.56;103205.19;10482137;28;20036;-77
2022/01/17 10:07:50;;;;;;;52.00;30.58;;;;;;;5.23;87.98;103222.09;10499831;28;20032;-77
2022/01/17 10:12:50;;;;;;;42.25;23.77;;;;;;;5.40;86.54;103218.69;10499710;28;20031;-77
2022/01/17 10:17:56;;;;;;;38.20;21.70;;;;;;;5.40;85.63;103235.19;10507672;28;20111;-77
2022/01/17 10:23:29;;;;;;;40.00;22.85;;;;;;;5.23;86.35;103225.59;10519296;28;20043;-76
2022/01/17 10:28:57;;;;;;;41.80;23.55;;;;;;;5.05;86.19;103221.94;10517630;28;20040;-77
2022/01/17 10:39:15;;;;;;;44.75;24.83;;;;;;;4.97;87.36;103222.78;10506909;28;20492;-76
2022/01/17 10:44:35;;;;;;;40.67;23.42;;;;;;;5.01;87.26;103232.75;10498929;28;20044;-78
2022/01/17 10:50:05;;;;;;;38.55;24.77;;;;;;;5.06;86.85;103236.78;10466037;28;20072;-77
2022/01/17 10:55:33;;;;;;;35.40;22.83;;;;;;;5.02;87.02;103226.81;10461083;28;20082;-77
2022/01/17 11:00:44;;;;;;;33.10;19.88;;;;;;;5.07;86.45;103238.63;10472080;28;20102;-77
2022/01/17 11:05:46;;;;;;;40.45;20.23;;;;;;;5.19;87.12;103246.78;10497987;28;21159;-78
2022/01/17 11:10:50;;;;;;;40.13;17.50;;;;;;;5.25;85.67;103256.94;10507907;28;20032;-78
2022/01/17 11:15:56;;;;;;;32.35;18.83;;;;;;;5.22;85.28;103256.59;10495423;28;21965;-79
2022/01/17 11:21:11;;;;;;;34.33;16.17;;;;;;;5.13;86.08;103264.28;10515635;28;20388;-79
2022/01/17 11:26:11;;;;;;;38.17;18.95;;;;;;;5.09;85.76;103246.53;10502881;28;20465;-78
2022/01/17 11:31:14;;;;;;;33.25;18.65;;;;;;;5.13;86.39;103247.06;10507124;28;20034;-80
2022/01/17 11:36:16;;;;;;;30.20;16.08;;;;;;;5.32;85.76;103242.91;10519756;28;20039;-77
2022/01/17 11:41:28;;;;;;;33.45;16.52;;;;;;;5.36;85.51;103247.69;10496992;28;20053;-80
2022/01/17 11:46:53;;;;;;;27.97;17.33;;;;;;;5.41;84.84;103264.66;10503487;28;20048;-79
2022/01/17 11:51:53;;;;;;;27.23;15.52;;;;;;;5.33;84.87;103269.06;10510503;28;20028;-79
2022/01/17 11:56:59;;;;;;;28.00;16.15;;;;;;;5.31;85.93;103269.63;10503136;28;20036;-78
2022/01/17 12:02:22;;;;;;;19.33;12.93;;;;;;;5.36;85.47;103264.19;10507303;28;20037;-78
2022/01/17 12:07:23;;;;;;;45.60;18.58;;;;;;;5.42;84.99;103251.88;10504964;28;20024;-79
2022/01/17 12:12:24;;;;;;;21.10;13.40;;;;;;;5.46;85.02;103244.41;10526119;28;20025;-78
2022/01/17 12:17:27;;;;;;;42.15;16.48;;;;;;;5.42;85.15;103223.28;10513347;28;20444;-79
2022/01/17 12:22:28;;;;;;;28.33;13.43;;;;;;;5.55;84.71;103217.72;10493364;28;20040;-78
2022/01/17 12:27:28;;;;;;;18.13;12.10;;;;;;;5.61;84.63;103246.03;10504473;28;20519;-79
2022/01/17 12:32:34;;;;;;;29.27;12.40;;;;;;;5.53;84.94;103255.59;10491652;28;20032;-78
2022/01/17 12:37:40;;;;;;;31.45;13.98;;;;;;;5.63;84.65;103259.16;10508982;28;20040;-78
2022/01/17 12:43:02;;;;;;;33.05;11.45;;;;;;;5.68;83.89;103276.16;10514064;28;20032;-79
2022/01/17 12:48:05;;;;;;;22.67;9.00;;;;;;;5.61;83.97;103256.44;10493018;28;20039;-78
2022/01/17 12:53:07;;;;;;;28.52;11.57;;;;;;;5.59;84.27;103265.72;10486057;28;20432;-78
2022/01/17 12:58:10;;;;;;;21.48;10.55;;;;;;;5.54;84.30;103246.13;10489860;28;20028;-78
2022/01/17 13:03:11;;;;;;;30.98;10.23;;;;;;;5.56;84.77;103249.81;10524986;28;20385;-78
2022/01/17 13:08:12;;;;;;;25.30;10.95;;;;;;;5.53;85.15;103250.41;10482604;28;20060;-78
2022/01/17 13:13:16;;;;;;;31.50;11.85;;;;;;;5.57;84.87;103262.97;10517574;28;20026;-79
2022/01/17 13:18:17;;;;;;;23.70;12.27;;;;;;;5.51;85.48;103269.19;10514267;28;20032;-78
2022/01/17 13:23:26;;;;;;;40.30;12.52;;;;;;;5.51;85.68;103251.00;10503908;28;20030;-78
2022/01/17 13:28:26;;;;;;;24.88;12.27;;;;;;;5.64;85.83;103254.16;10479199;28;20380;-78
2022/01/17 13:33:28;;;;;;;27.90;11.45;;;;;;;5.75;85.34;103239.69;10474756;28;20056;-79
2022/01/17 13:38:29;;;;;;;22.10;12.75;;;;;;;5.81;85.55;103248.13;10464779;28;20051;-80
2022/01/17 13:43:29;;;;;;;22.23;9.77;;;;;;;5.71;85.83;103251.44;10488817;28;20084;-80
2022/01/17 13:48:30;;;;;;;25.88;10.27;;;;;;;5.75;85.97;103269.97;10461795;28;20027;-80
2022/01/17 13:53:33;;;;;;;30.67;13.43;;;;;;;5.82;85.66;103262.97;10485815;28;20068;-80
2022/01/17 13:58:41;;;;;;;19.80;10.80;;;;;;;5.91;84.83;103263.03;10510466;28;20024;-79
2022/01/17 14:03:41;;;;;;;43.67;26.92;;;;;;;5.95;85.07;103257.38;10482442;28;20037;-80
2022/01/17 14:08:48;;;;;;;40.08;21.45;;;;;;;6.04;85.11;103247.03;10453965;28;20032;-80
2022/01/17 14:13:54;;;;;;;32.00;15.57;;;;;;;6.07;84.90;103242.16;10499643;28;20032;-80
2022/01/17 14:19:00;;;;;;;29.17;10.73;;;;;;;6.10;84.60;103252.88;10503768;28;20502;-80
2022/01/17 14:24:08;;;;;;;20.75;8.65;;;;;;;6.09;83.80;103265.75;10476234;28;20029;-80
2022/01/17 14:29:10;;;;;;;24.52;11.02;;;;;;;6.05;84.75;103269.69;10487080;28;20064;-80
2022/01/17 14:34:17;;;;;;;31.55;16.50;;;;;;;6.07;85.01;103291.56;10503768;28;20024;-80
2022/01/17 14:39:37;;;;;;;31.33;12.63;;;;;;;6.07;84.42;103277.66;10486967;28;20102;-78
2022/01/17 14:44:39;;;;;;;21.27;9.75;;;;;;;5.94;85.31;103272.81;10454609;28;20296;-79
2022/01/17 14:50:09;;;;;;;22.77;8.85;;;;;;;5.95;85.09;103274.63;10451519;28;20052;-79
2022/01/17 15:05:21;;;;;;;31.10;11.27;;;;;;;6.05;84.86;103289.56;10490141;28;20045;-78
2022/01/17 15:10:23;;;;;;;28.97;8.97;;;;;;;6.16;84.93;103295.13;10483166;28;20045;-79
2022/01/17 15:15:24;;;;;;;38.92;10.88;;;;;;;6.34;84.66;103296.91;10493935;28;20722;-78
2022/01/17 15:20:26;;;;;;;33.20;10.23;;;;;;;6.30;84.43;103309.59;10467279;28;20039;-79
2022/01/17 15:25:27;;;;;;;25.33;10.38;;;;;;;6.34;84.52;103318.63;10475065;28;20150;-78
2022/01/17 15:30:33;;;;;;;32.35;10.82;;;;;;;6.32;84.96;103333.13;10522958;28;20448;-78
2022/01/17 15:35:37;;;;;;;26.55;7.93;;;;;;;6.29;84.36;103331.16;10535839;28;20032;-78
2022/01/17 15:40:37;;;;;;;24.75;9.48;;;;;;;6.23;84.96;103343.53;10498966;28;20045;-78
2022/01/17 15:45:38;;;;;;;25.25;9.77;;;;;;;6.10;85.13;103341.28;10487765;28;20033;-78
2022/01/17 15:50:39;;;;;;;23.58;9.23;;;;;;;5.95;85.07;103342.22;10480908;28;20109;-78
2022/01/17 15:55:40;;;;;;;34.33;9.98;;;;;;;5.74;85.97;103359.97;10523636;28;20113;-78
2022/01/17 16:00:40;;;;;;;35.13;10.73;;;;;;;5.51;86.54;103371.41;10512595;28;20537;-78
2022/01/17 16:05:48;;;;;;;25.67;9.65;;;;;;;5.20;87.25;103372.34;10484731;28;20119;-79
2022/01/17 16:10:49;;;;;;;25.58;9.82;;;;;;;4.98;88.01;103376.09;10496605;28;20024;-78
2022/01/17 16:15:50;;;;;;;28.73;10.77;;;;;;;4.79;88.90;103379.97;10496090;28;20714;-78
2022/01/17 16:20:53;;;;;;;47.30;13.25;;;;;;;4.59;88.95;103382.97;10460442;28;20032;-78
2022/01/17 16:25:56;;;;;;;27.75;10.88;;;;;;;4.42;89.82;103384.56;10500595;28;20040;-78
2022/01/17 16:31:01;;;;;;;35.92;10.73;;;;;;;4.45;91.26;103399.53;10491183;28;20381;-78
2022/01/17 16:36:02;;;;;;;28.67;9.38;;;;;;;4.52;90.97;103409.84;10493656;28;20032;-78
2022/01/17 16:41:02;;;;;;;23.70;8.63;;;;;;;4.71;91.19;103402.50;10492375;28;20044;-78
2022/01/17 16:46:03;;;;;;;32.10;12.15;;;;;;;4.85;90.81;103404.03;10491264;28;20029;-78
2022/01/17 16:51:04;;;;;;;23.48;11.00;;;;;;;4.93;90.82;103398.00;10496386;28;20036;-78
2022/01/17 16:56:05;;;;;;;27.20;10.80;;;;;;;5.05;89.82;103410.50;10490943;28;20032;-78
2022/01/17 17:01:12;;;;;;;35.50;13.65;;;;;;;5.10;90.16;103414.53;10493545;28;20028;-77
2022/01/17 17:06:12;;;;;;;32.75;10.73;;;;;;;5.14;89.41;103419.31;10477507;28;20479;-77
2022/01/17 17:11:13;;;;;;;28.17;9.95;;;;;;;5.17;90.20;103422.25;10489254;28;20028;-77
2022/01/17 17:16:13;;;;;;;28.67;14.18;;;;;;;5.27;89.74;103416.41;10491462;28;20052;-78
2022/01/17 17:21:14;;;;;;;49.20;13.23;;;;;;;5.29;88.72;103431.41;10493143;28;20031;-78
2022/01/17 17:26:14;;;;;;;25.05;9.23;;;;;;;5.29;89.04;103428.78;10492018;28;20063;-77
2022/01/17 17:31:15;;;;;;;29.65;11.15;;;;;;;5.26;89.43;103424.94;10491042;28;20090;-78
2022/01/17 17:36:15;;;;;;;31.17;14.65;;;;;;;5.23;89.06;103438.50;10491851;28;20032;-78
2022/01/17 17:41:17;;;;;;;29.38;12.35;;;;;;;5.21;88.50;103444.28;10486715;28;20098;-79
2022/01/17 17:46:17;;;;;;;25.95;10.70;;;;;;;5.19;89.41;103454.50;10492861;28;20032;-78
2022/01/17 17:51:18;;;;;;;42.00;15.00;;;;;;;5.16;89.16;103468.81;10489087;28;20457;-79
2022/01/17 17:56:18;;;;;;;36.97;13.32;;;;;;;5.13;89.20;103469.41;10514537;28;20017;-80
2022/01/17 18:01:22;;;;;;;25.08;12.80;;;;;;;5.13;89.67;103482.38;10489323;28;20034;-78
2022/01/17 18:06:23;;;;;;;33.67;12.63;;;;;;;5.10;89.20;103484.63;10493828;28;20027;-78
2022/01/17 18:11:26;;;;;;;33.50;9.98;;;;;;;5.08;89.44;103471.50;10490831;28;20020;-78
2022/01/17 18:16:26;;;;;;;30.05;10.20;;;;;;;5.11;89.18;103469.25;10489040;28;20029;-78
2022/01/17 18:21:27;;;;;;;23.33;10.68;;;;;;;5.08;90.04;103484.47;10476209;28;20071;-79
2022/01/17 18:26:28;;;;;;;38.22;11.57;;;;;;;5.05;90.14;103475.41;10494706;28;20116;-79
2022/01/17 18:31:28;;;;;;;25.13;10.48;;;;;;;5.04;90.33;103484.88;10494622;28;20082;-79
2022/01/17 18:36:30;;;;;;;32.53;10.02;;;;;;;5.05;89.28;103478.00;10495439;28;20056;-79
2022/01/17 18:41:31;;;;;;;29.20;11.32;;;;;;;5.05;89.71;103481.53;10489001;28;20110;-79
2022/01/17 18:46:32;;;;;;;30.00;13.15;;;;;;;5.05;89.65;103480.59;10454934;28;20024;-78
2022/01/17 18:51:35;;;;;;;35.40;13.27;;;;;;;5.03;90.19;103487.28;10491352;28;20028;-79
2022/01/17 18:56:35;;;;;;;32.22;10.73;;;;;;;4.99;89.59;103497.31;10490775;28;20165;-79
2022/01/17 19:01:39;;;;;;;25.02;9.52;;;;;;;4.99;90.06;103497.31;10476262;28;20541;-78
2022/01/17 19:06:39;;;;;;;41.17;12.95;;;;;;;5.00;90.47;103491.38;10499072;28;20027;-78
2022/01/17 19:11:40;;;;;;;27.90;10.48;;;;;;;4.96;90.10;103501.25;10499172;28;20063;-79
2022/01/17 19:16:40;;;;;;;34.33;12.00;;;;;;;4.99;89.93;103496.41;10497282;28;20032;-78
2022/01/17 19:26:43;;;;;;;27.08;11.48;;;;;;;4.96;90.63;103507.38;10499822;28;20096;-79
2022/01/17 19:31:44;;;;;;;23.60;9.10;;;;;;;4.96;90.69;103507.38;10479900;28;20547;-79
2022/01/17 19:36:46;;;;;;;33.92;8.60;;;;;;;4.99;90.34;103512.00;10468543;28;20032;-79
2022/01/17 19:41:46;;;;;;;24.80;8.77;;;;;;;4.98;90.57;103530.91;10514648;28;20407;-80
2022/01/17 19:46:47;;;;;;;27.35;10.40;;;;;;;5.00;91.00;103532.00;10500643;28;20032;-82
2022/01/17 19:51:47;;;;;;;26.30;9.27;;;;;;;4.98;90.32;103533.50;10500004;28;20078;-80
2022/01/17 19:56:48;;;;;;;43.58;16.15;;;;;;;4.99;90.47;103550.94;10492161;28;20055;-78
2022/01/17 20:01:48;;;;;;;26.75;9.48;;;;;;;5.00;90.11;103551.09;10482154;28;20051;-79
2022/01/17 20:06:49;;;;;;;39.75;12.88;;;;;;;4.98;89.96;103570.75;10496663;28;20043;-81
2022/01/17 20:11:50;;;;;;;48.72;15.60;;;;;;;4.99;89.92;103567.41;10493006;28;20117;-79
2022/01/17 20:16:51;;;;;;;54.28;32.45;;;;;;;5.00;90.75;103573.53;10497498;28;20467;-80
2022/01/17 20:21:51;;;;;;;41.63;18.00;;;;;;;4.95;90.44;103587.66;10496869;28;20036;-78
2022/01/17 20:26:52;;;;;;;31.42;12.90;;;;;;;4.92;90.19;103579.53;10498504;28;20067;-78
2022/01/17 20:31:53;;;;;;;32.80;16.40;;;;;;;4.90;90.78;103592.31;10520775;28;20053;-81
2022/01/17 20:36:53;;;;;;;28.25;11.90;;;;;;;4.92;90.69;103601.19;10517279;28;20044;-79
2022/01/17 20:41:54;;;;;;;46.92;10.93;;;;;;;4.91;90.54;103595.84;10497531;28;20095;-79
2022/01/17 20:46:54;;;;;;;45.20;11.57;;;;;;;4.87;90.76;103589.38;10498732;28;20056;-80
2022/01/17 20:51:55;;;;;;;42.17;11.98;;;;;;;4.81;90.86;103583.47;10496933;28;20120;-80
2022/01/17 20:56:56;;;;;;;34.05;13.43;;;;;;;4.87;91.29;103591.97;10496970;28;20642;-80
2022/01/17 21:01:56;;;;;;;33.00;13.13;;;;;;;4.87;91.35;103593.66;10496578;28;20051;-78
2022/01/17 21:06:57;;;;;;;40.45;13.90;;;;;;;4.88;90.76;103595.50;10495737;28;20480;-78
2022/01/17 21:11:58;;;;;;;26.70;9.98;;;;;;;4.88;90.98;103591.22;10497517;28;20028;-78
2022/01/17 21:16:59;;;;;;;42.75;11.75;;;;;;;4.86;90.40;103603.09;10496016;28;20396;-80
2022/01/17 21:21:59;;;;;;;33.97;10.43;;;;;;;4.83;90.96;103595.91;10496406;28;20036;-79
2022/01/17 21:27:01;;;;;;;48.08;11.25;;;;;;;4.92;90.89;103597.69;10497057;28;20052;-79
2022/01/17 21:32:02;;;;;;;29.10;9.30;;;;;;;4.85;91.00;103593.47;10495483;28;20087;-79
2022/01/17 21:37:05;;;;;;;28.35;10.13;;;;;;;4.81;90.86;103588.66;10477678;28;20046;-78
2022/01/17 21:42:07;;;;;;;23.98;10.13;;;;;;;4.78;91.01;103590.91;10478018;28;20113;-78
2022/01/17 21:47:08;;;;;;;26.98;9.98;;;;;;;4.79;90.82;103603.13;10478601;28;20090;-78
2022/01/17 21:52:09;;;;;;;27.42;11.27;;;;;;;4.77;90.88;103599.44;10495945;28;20040;-78
2022/01/17 21:57:10;;;;;;;33.88;9.23;;;;;;;4.72;91.54;103585.00;10477974;28;20036;-78
2022/01/17 22:02:17;;;;;;;45.45;13.95;;;;;;;4.68;90.95;103588.94;10477584;28;20038;-78
2022/01/17 22:07:18;;;;;;;28.60;11.00;;;;;;;4.73;91.62;103589.44;10495510;28;20434;-78
2022/01/17 22:12:18;;;;;;;41.72;13.07;;;;;;;4.72;90.97;103587.59;10461353;28;20021;-77
2022/01/17 22:17:19;;;;;;;49.53;16.30;;;;;;;4.75;91.50;103577.59;10493575;28;20361;-78
2022/01/17 22:22:19;;;;;;;39.80;13.48;;;;;;;4.74;91.67;103591.31;10494767;28;20115;-78
2022/01/17 22:27:20;;;;;;;38.95;14.00;;;;;;;4.72;91.23;103585.94;10495045;28;20045;-77
2022/01/17 22:32:20;;;;;;;36.75;16.63;;;;;;;4.69;91.38;103581.31;10495048;28;20074;-78
2022/01/17 22:37:21;;;;;;;32.78;12.45;;;;;;;4.53;91.21;103565.66;10499239;28;20066;-77
2022/01/17 22:42:21;;;;;;;40.05;14.50;;;;;;;4.09;90.48;103570.09;10503284;28;20036;-78
2022/01/17 22:47:22;;;;;;;49.33;13.38;;;;;;;3.78;92.10;103565.56;10502628;28;20070;-78
2022/01/17 22:52:22;;;;;;;41.13;13.43;;;;;;;3.40;91.79;103557.66;10501081;28;20111;-78
2022/01/17 22:57:23;;;;;;;45.53;13.02;;;;;;;3.20;92.43;103574.31;10502902;28;20107;-78
2022/01/17 23:02:23;;;;;;;48.03;13.77;;;;;;;2.95;92.58;103575.59;10501759;28;20058;-78
2022/01/17 23:07:24;;;;;;;28.92;12.95;;;;;;;2.67;92.35;103581.59;10501277;28;20497;-78
2022/01/17 23:12:24;;;;;;;28.40;11.50;;;;;;;2.48;92.69;103589.69;10485273;28;20181;-77
2022/01/17 23:17:30;;;;;;;35.50;16.10;;;;;;;2.35;92.64;103595.00;10500297;28;20035;-78
2022/01/17 23:22:30;;;;;;;45.60;17.73;;;;;;;2.19;93.14;103603.41;10500155;28;20032;-77
2022/01/17 23:27:31;;;;;;;36.63;13.55;;;;;;;2.20;93.38;103612.06;10500509;28;20078;-79